Cotati, California
Current Conditions -  °F | °C
As of 11:15 PM on Friday 24 Oct 2014 (Local Time) from KO69 Reporting Station
Overcast Overcast  
Wind Chill: 63°   Ceiling: 2800
Heat Index: 63°   Visibility: 10mi
Dew Point: 55°   Wind: 6mph
Humidity: 77%   Direction: 110°ESE
Pressure: 29.94"   Gusts: NA
Location:  38.32°N, 122.7°W
Report Text: KO69 250615Z AUTO 11005KT 10SM OVC028 17/13 A2994 RMK AO1
Loading
Personal Weather Stations






























Interactive Weather Map
Tropical Storm Tracking
New forecast layout! Learn more

10-Day Weather Forecast

Advertisements
Track Severe Weather on mobile